Time;durP1;ratioP1;P1;durP2;ratioP2;P2;SDS_P1;SDS_P2;PMS_P1;PMS_P2;Temp;Humidity;BMP_temperature;BMP_pressure;BME280_temperature;BME280_humidity;BME280_pressure;Samples;Min_cycle;Max_cycle;Signal;HPM_P1;HPM_P2
2021/09/10 00:01:08;;;;;;;6.68;4.28;;;19.30;99.90;;;;;;5123315;28;20039;-81
2021/09/10 00:03:33;;;;;;;6.60;4.60;;;19.30;99.90;;;;;;5123555;28;20027;-82
2021/09/10 00:05:59;;;;;;;6.18;4.38;;;19.30;99.90;;;;;;5124430;28;20429;-79
2021/09/10 00:08:24;;;;;;;7.45;4.70;;;19.30;99.90;;;;;;5122748;28;20147;-80
2021/09/10 00:10:50;;;;;;;8.30;4.40;;;19.20;99.90;;;;;;5141900;27;20390;-79
2021/09/10 00:13:16;;;;;;;7.32;4.18;;;19.20;99.90;;;;;;5137660;27;20042;-81
2021/09/10 00:15:41;;;;;;;8.82;4.43;;;19.20;99.90;;;;;;5138873;28;20038;-81
2021/09/10 00:18:07;;;;;;;6.53;4.10;;;19.20;99.90;;;;;;5119077;28;20062;-80
2021/09/10 00:20:32;;;;;;;8.25;4.80;;;19.10;99.90;;;;;;5124675;28;20479;-81
2021/09/10 00:22:58;;;;;;;8.43;4.97;;;19.10;99.90;;;;;;5123243;28;20019;-79
2021/09/10 00:25:24;;;;;;;8.77;4.97;;;19.10;99.90;;;;;;5134436;28;20038;-81
2021/09/10 00:27:49;;;;;;;6.63;4.60;;;19.10;99.90;;;;;;5123381;28;20475;-80
2021/09/10 00:30:15;;;;;;;8.60;4.63;;;19.10;99.90;;;;;;5122491;28;20026;-80
2021/09/10 00:32:41;;;;;;;8.10;4.50;;;19.10;99.90;;;;;;5123301;28;20027;-78
2021/09/10 00:35:07;;;;;;;8.73;4.88;;;19.10;99.90;;;;;;5123948;28;20024;-81
2021/09/10 00:37:32;;;;;;;8.27;4.75;;;19.20;99.90;;;;;;5122170;28;20115;-79
2021/09/10 00:39:58;;;;;;;6.43;4.22;;;19.20;99.90;;;;;;5124021;28;20414;-81
2021/09/10 00:42:24;;;;;;;7.75;4.85;;;19.20;99.90;;;;;;5126215;27;20028;-80
2021/09/10 00:44:49;;;;;;;7.60;5.05;;;19.20;99.90;;;;;;5127176;28;20084;-80
2021/09/10 00:47:16;;;;;;;6.88;4.63;;;19.10;99.90;;;;;;5127216;28;20028;-80
2021/09/10 00:49:42;;;;;;;10.10;4.75;;;19.10;99.90;;;;;;5129144;28;20028;-80
2021/09/10 00:52:10;;;;;;;8.10;4.40;;;19.10;99.90;;;;;;5129350;27;20028;-80
2021/09/10 00:54:35;;;;;;;7.15;4.30;;;19.10;99.90;;;;;;5127024;28;20019;-79
2021/09/10 00:57:01;;;;;;;8.18;4.80;;;19.10;99.90;;;;;;5128668;28;20032;-80
2021/09/10 00:59:26;;;;;;;8.57;5.05;;;19.10;99.90;;;;;;5133379;27;20138;-80
2021/09/10 01:01:53;;;;;;;7.00;4.47;;;19.10;99.90;;;;;;5127123;28;20024;-80
2021/09/10 01:04:22;;;;;;;11.07;5.10;;;19.10;99.90;;;;;;5127424;28;20110;-80
2021/09/10 01:06:50;;;;;;;8.18;4.68;;;19.10;99.90;;;;;;5127473;28;20035;-80
2021/09/10 01:09:18;;;;;;;11.05;4.95;;;19.00;99.90;;;;;;5135832;27;20107;-79
2021/09/10 01:11:44;;;;;;;6.40;4.55;;;19.00;99.90;;;;;;5159914;27;20015;-80
2021/09/10 01:14:10;;;;;;;8.30;4.72;;;19.10;99.90;;;;;;5167284;27;20031;-78
2021/09/10 01:16:36;;;;;;;7.80;4.93;;;19.00;99.90;;;;;;5168152;27;20027;-79
2021/09/10 01:19:02;;;;;;;7.50;5.30;;;18.90;99.90;;;;;;5135029;27;20158;-80
2021/09/10 01:21:27;;;;;;;9.57;4.78;;;18.80;99.90;;;;;;5128711;28;20028;-80
2021/09/10 01:23:53;;;;;;;9.35;5.28;;;18.90;99.90;;;;;;5129875;27;20027;-80
2021/09/10 01:26:18;;;;;;;7.78;4.90;;;18.70;99.90;;;;;;5149346;27;20042;-79
2021/09/10 01:28:44;;;;;;;9.48;5.25;;;18.80;99.90;;;;;;5132143;27;20028;-78
2021/09/10 01:31:09;;;;;;;9.35;5.05;;;18.70;99.90;;;;;;5128434;27;20034;-80
2021/09/10 01:33:35;;;;;;;9.07;5.22;;;18.70;99.90;;;;;;5139745;27;20024;-79
2021/09/10 01:36:01;;;;;;;8.75;5.18;;;18.60;99.90;;;;;;5141473;27;20048;-78
2021/09/10 01:38:27;;;;;;;8.82;5.15;;;18.60;99.90;;;;;;5168667;27;20027;-79
2021/09/10 01:40:53;;;;;;;7.20;5.50;;;18.70;99.90;;;;;;5148755;27;20020;-79
2021/09/10 01:43:18;;;;;;;9.15;5.30;;;18.60;99.90;;;;;;5141391;27;20050;-79
2021/09/10 01:45:44;;;;;;;7.68;5.18;;;18.60;99.90;;;;;;5130652;27;20024;-80
2021/09/10 01:48:10;;;;;;;7.63;5.45;;;18.70;99.90;;;;;;5168156;27;20025;-79
2021/09/10 01:50:35;;;;;;;10.32;5.95;;;18.60;99.90;;;;;;5161317;27;20479;-77
2021/09/10 01:53:01;;;;;;;8.00;5.45;;;18.60;99.90;;;;;;5127801;28;20027;-79
2021/09/10 01:55:30;;;;;;;9.20;5.85;;;18.60;99.90;;;;;;5126881;28;20447;-80
2021/09/10 01:57:55;;;;;;;8.30;6.15;;;18.70;99.90;;;;;;5126871;28;20087;-80
2021/09/10 02:00:21;;;;;;;10.68;6.00;;;18.60;99.90;;;;;;5127222;27;20044;-79
2021/09/10 02:02:47;;;;;;;8.43;5.50;;;18.60;99.90;;;;;;5127493;28;20035;-81
2021/09/10 02:05:13;;;;;;;10.43;5.32;;;18.60;99.90;;;;;;5126426;28;20020;-79
2021/09/10 02:07:39;;;;;;;8.13;5.57;;;18.70;99.90;;;;;;5125920;28;20026;-79
2021/09/10 02:10:07;;;;;;;10.02;5.47;;;18.60;99.90;;;;;;5126842;27;20083;-78
2021/09/10 02:12:33;;;;;;;8.73;5.28;;;18.60;99.90;;;;;;5127959;28;20028;-80
2021/09/10 02:14:58;;;;;;;7.72;5.47;;;18.60;99.90;;;;;;5128097;28;20156;-80
2021/09/10 02:17:24;;;;;;;10.95;5.57;;;18.60;99.90;;;;;;5131003;27;20035;-80
2021/09/10 02:19:50;;;;;;;8.45;5.47;;;18.60;99.90;;;;;;5127116;28;20023;-79
2021/09/10 02:22:16;;;;;;;8.18;5.30;;;18.50;99.90;;;;;;5127515;28;20030;-79
2021/09/10 02:24:41;;;;;;;9.93;5.90;;;18.50;99.90;;;;;;5135271;27;20031;-80
2021/09/10 02:27:07;;;;;;;7.68;5.32;;;18.50;99.90;;;;;;5129397;27;20038;-80
2021/09/10 02:29:33;;;;;;;7.40;5.65;;;18.40;99.90;;;;;;5140207;27;20103;-79
2021/09/10 02:31:58;;;;;;;8.52;5.10;;;18.40;99.90;;;;;;5142513;27;20026;-79
2021/09/10 02:34:24;;;;;;;10.38;5.82;;;18.40;99.90;;;;;;5148155;27;20075;-79
2021/09/10 02:36:49;;;;;;;8.30;5.53;;;18.30;99.90;;;;;;5130095;27;20032;-81
2021/09/10 02:39:15;;;;;;;8.65;5.35;;;18.30;99.90;;;;;;5125380;28;20031;-80
2021/09/10 02:41:41;;;;;;;8.48;5.57;;;18.30;99.90;;;;;;5125542;28;20061;-79
2021/09/10 02:44:07;;;;;;;9.75;5.65;;;18.30;99.90;;;;;;5127248;28;20035;-80
2021/09/10 02:46:33;;;;;;;9.00;5.35;;;18.40;99.90;;;;;;5126591;28;20087;-79
2021/09/10 02:49:00;;;;;;;9.88;5.60;;;18.30;99.90;;;;;;5123345;28;20046;-79
2021/09/10 02:51:25;;;;;;;8.68;6.03;;;18.30;99.90;;;;;;5153396;27;20030;-80
2021/09/10 02:53:51;;;;;;;9.25;5.75;;;18.40;99.90;;;;;;5153315;27;20020;-81
2021/09/10 02:56:17;;;;;;;7.80;5.57;;;18.30;99.90;;;;;;5126906;28;20479;-80
2021/09/10 02:58:43;;;;;;;8.35;5.45;;;18.30;99.90;;;;;;5124824;28;20053;-79
2021/09/10 03:01:09;;;;;;;8.60;6.20;;;18.30;99.90;;;;;;5125973;28;20016;-79
2021/09/10 03:03:34;;;;;;;9.77;6.15;;;18.30;99.90;;;;;;5139513;27;20027;-80
2021/09/10 03:06:00;;;;;;;8.48;6.00;;;18.30;99.90;;;;;;5146654;27;20030;-80
2021/09/10 03:08:25;;;;;;;8.70;6.25;;;18.30;99.90;;;;;;5146095;27;20015;-80
2021/09/10 03:10:51;;;;;;;9.20;6.25;;;18.30;99.90;;;;;;5140060;27;20051;-79
2021/09/10 03:13:17;;;;;;;9.70;6.22;;;18.40;99.90;;;;;;5126888;28;20120;-79
2021/09/10 03:15:44;;;;;;;10.23;6.25;;;18.40;99.90;;;;;;5125140;28;20035;-80
2021/09/10 03:18:10;;;;;;;9.07;6.03;;;18.40;99.90;;;;;;5121877;27;20023;-78
2021/09/10 03:20:36;;;;;;;8.07;5.85;;;18.40;99.90;;;;;;5122369;28;20023;-81
2021/09/10 03:23:02;;;;;;;8.80;6.10;;;18.40;99.90;;;;;;5122688;28;20044;-80
2021/09/10 03:25:28;;;;;;;8.45;5.60;;;18.40;99.90;;;;;;5138856;27;20034;-80
2021/09/10 03:27:54;;;;;;;8.00;5.95;;;18.40;99.90;;;;;;5135932;27;20024;-79
2021/09/10 03:30:20;;;;;;;7.72;5.63;;;18.40;99.90;;;;;;5122827;28;20039;-80
2021/09/10 03:32:46;;;;;;;8.57;5.78;;;18.40;99.90;;;;;;5124584;28;20135;-79
2021/09/10 03:35:12;;;;;;;8.88;6.00;;;18.30;99.90;;;;;;5124687;28;20016;-80
2021/09/10 03:37:38;;;;;;;8.98;5.65;;;18.40;99.90;;;;;;5141147;28;20139;-80
2021/09/10 03:40:05;;;;;;;8.32;5.68;;;18.40;99.90;;;;;;5125122;28;20020;-79
2021/09/10 03:42:31;;;;;;;7.10;5.35;;;18.30;99.90;;;;;;5125169;28;20480;-81
2021/09/10 03:44:56;;;;;;;9.07;6.05;;;18.30;99.90;;;;;;5125597;28;20042;-78
2021/09/10 03:47:22;;;;;;;9.70;5.57;;;18.30;99.90;;;;;;5123796;28;20100;-79
2021/09/10 03:49:47;;;;;;;9.45;5.88;;;18.20;99.90;;;;;;5122219;27;20090;-80
2021/09/10 03:52:13;;;;;;;9.20;6.30;;;18.10;99.90;;;;;;5164110;27;20030;-81
2021/09/10 03:54:39;;;;;;;9.85;6.60;;;18.10;99.90;;;;;;5166657;27;20022;-81
2021/09/10 03:57:04;;;;;;;8.52;6.05;;;18.00;99.90;;;;;;5134468;27;20075;-80
2021/09/10 03:59:30;;;;;;;9.93;6.53;;;18.00;99.90;;;;;;5123230;28;20023;-79
2021/09/10 04:01:56;;;;;;;9.48;6.40;;;18.00;99.90;;;;;;5123183;28;20087;-81
2021/09/10 04:04:21;;;;;;;9.02;6.68;;;18.00;99.90;;;;;;5123533;28;20039;-80
2021/09/10 04:06:47;;;;;;;11.80;7.38;;;18.00;99.90;;;;;;5124625;28;20048;-80
2021/09/10 04:09:13;;;;;;;11.75;6.78;;;17.90;99.90;;;;;;5126433;28;20011;-80
2021/09/10 04:11:38;;;;;;;9.80;6.82;;;17.80;99.90;;;;;;5124232;28;20031;-80
2021/09/10 04:14:04;;;;;;;10.35;6.95;;;17.80;99.90;;;;;;5124801;28;20042;-81
2021/09/10 04:16:30;;;;;;;10.82;7.50;;;17.80;99.90;;;;;;5127211;28;20024;-80
2021/09/10 04:18:56;;;;;;;15.10;7.15;;;17.70;99.90;;;;;;5126097;27;20524;-81
2021/09/10 04:21:21;;;;;;;9.73;7.53;;;17.60;99.90;;;;;;5128998;28;20042;-79
2021/09/10 04:23:47;;;;;;;10.90;7.25;;;17.60;99.90;;;;;;5130095;27;20034;-79
2021/09/10 04:26:13;;;;;;;9.88;7.15;;;17.60;99.90;;;;;;5143872;27;20024;-79
2021/09/10 04:28:39;;;;;;;12.05;8.50;;;17.50;99.90;;;;;;5126242;28;20024;-79
2021/09/10 04:31:04;;;;;;;10.57;7.40;;;17.50;99.90;;;;;;5130399;27;20020;-79
2021/09/10 04:33:30;;;;;;;10.35;7.55;;;17.50;99.90;;;;;;5148395;27;20030;-79
2021/09/10 04:35:55;;;;;;;10.70;7.47;;;17.40;99.90;;;;;;5142976;27;20027;-79
2021/09/10 04:38:21;;;;;;;10.15;7.13;;;17.30;99.90;;;;;;5142667;27;20380;-79
2021/09/10 04:40:47;;;;;;;11.20;7.78;;;17.40;99.90;;;;;;5129406;28;20079;-81
2021/09/10 04:43:12;;;;;;;11.75;7.10;;;17.40;99.90;;;;;;5129003;28;20428;-80
2021/09/10 04:45:38;;;;;;;11.80;7.40;;;17.30;99.90;;;;;;5131425;27;20495;-81
2021/09/10 04:48:04;;;;;;;10.13;6.93;;;17.40;99.90;;;;;;5141290;27;20110;-79
2021/09/10 04:50:29;;;;;;;11.60;6.88;;;17.40;99.90;;;;;;5148023;27;20034;-78
2021/09/10 04:52:55;;;;;;;10.20;6.75;;;17.40;99.90;;;;;;5150048;27;20115;-79
2021/09/10 04:55:21;;;;;;;12.68;6.65;;;17.40;99.90;;;;;;5128852;28;20032;-81
2021/09/10 04:57:47;;;;;;;9.68;7.10;;;17.40;99.90;;;;;;5127677;28;20019;-82
2021/09/10 05:00:13;;;;;;;9.90;6.45;;;17.40;99.90;;;;;;5141626;27;20019;-81
2021/09/10 05:02:39;;;;;;;14.70;7.05;;;17.40;99.90;;;;;;5145013;27;20023;-79
2021/09/10 05:05:06;;;;;;;9.68;7.38;;;17.30;99.90;;;;;;5138800;27;20031;-81
2021/09/10 05:07:31;;;;;;;11.30;7.28;;;17.30;99.90;;;;;;5147287;27;20023;-80
2021/09/10 05:09:57;;;;;;;12.57;7.40;;;17.30;99.90;;;;;;5143800;27;20035;-81
2021/09/10 05:12:23;;;;;;;10.05;7.65;;;17.30;99.90;;;;;;5130030;28;20047;-80
2021/09/10 05:14:54;;;;;;;9.70;7.78;;;17.30;99.90;;;;;;5126411;28;20031;-80
2021/09/10 05:17:20;;;;;;;10.55;7.28;;;17.30;99.90;;;;;;5135521;27;20075;-82
2021/09/10 05:22:14;;;;;;;10.27;7.18;;;17.30;99.90;;;;;;5066871;28;19920;-79
2021/09/10 05:24:39;;;;;;;9.55;7.32;;;17.30;99.90;;;;;;5077366;28;20027;-80
2021/09/10 05:27:06;;;;;;;10.00;7.40;;;17.30;99.90;;;;;;5079487;28;20017;-79
2021/09/10 05:29:31;;;;;;;11.07;7.43;;;17.30;99.90;;;;;;5078547;28;20477;-80
2021/09/10 05:31:57;;;;;;;13.18;8.30;;;17.30;99.90;;;;;;5077919;28;20027;-80
2021/09/10 05:34:22;;;;;;;10.50;7.93;;;17.30;99.90;;;;;;5077010;28;20036;-80
2021/09/10 05:36:48;;;;;;;11.40;7.47;;;17.30;99.90;;;;;;5071639;28;20074;-80
2021/09/10 05:39:14;;;;;;;12.23;7.70;;;17.40;99.90;;;;;;5075831;28;20056;-81
2021/09/10 05:41:39;;;;;;;12.18;6.88;;;17.30;99.90;;;;;;5068890;28;20028;-81
2021/09/10 05:44:05;;;;;;;11.30;7.55;;;17.40;99.90;;;;;;5076027;28;20499;-81
2021/09/10 05:46:30;;;;;;;15.43;7.93;;;17.50;99.90;;;;;;5068686;28;20032;-81
2021/09/10 05:48:56;;;;;;;11.25;7.80;;;17.50;99.90;;;;;;5057833;28;20745;-81
2021/09/10 05:51:21;;;;;;;11.35;8.05;;;17.50;99.90;;;;;;5064596;28;20044;-81
2021/09/10 05:53:47;;;;;;;10.40;7.53;;;17.60;99.90;;;;;;5070910;28;20020;-80
2021/09/10 05:56:13;;;;;;;11.05;8.05;;;17.60;99.90;;;;;;5061407;28;20025;-81
2021/09/10 05:58:39;;;;;;;10.38;7.10;;;17.70;99.90;;;;;;5058925;28;20379;-81
2021/09/10 06:01:04;;;;;;;11.40;7.40;;;17.70;99.90;;;;;;5058596;28;20021;-81
2021/09/10 06:03:30;;;;;;;13.65;8.20;;;17.80;99.90;;;;;;5058898;28;20120;-81
2021/09/10 06:05:55;;;;;;;13.35;8.32;;;17.80;99.90;;;;;;5067948;28;20025;-80
2021/09/10 06:08:21;;;;;;;14.40;8.52;;;17.90;99.90;;;;;;5078702;28;20028;-80
2021/09/10 06:10:46;;;;;;;13.40;8.25;;;18.00;99.90;;;;;;5078776;28;20051;-81
2021/09/10 06:13:13;;;;;;;13.20;7.97;;;18.00;99.90;;;;;;5079925;28;20534;-81
2021/09/10 06:15:38;;;;;;;18.10;9.55;;;18.00;99.90;;;;;;5081759;28;20046;-81
2021/09/10 06:18:04;;;;;;;18.20;10.63;;;17.90;99.90;;;;;;5064415;28;20100;-81
2021/09/10 06:20:30;;;;;;;12.98;9.38;;;17.80;99.90;;;;;;5061215;28;20056;-81
2021/09/10 06:22:56;;;;;;;14.77;10.13;;;17.70;99.90;;;;;;5058833;28;20033;-81
2021/09/10 06:25:22;;;;;;;13.07;9.20;;;17.60;99.90;;;;;;5060769;28;20028;-81
2021/09/10 06:27:47;;;;;;;13.93;9.07;;;17.70;99.90;;;;;;5064921;28;20472;-81
2021/09/10 06:30:13;;;;;;;12.48;9.38;;;17.80;99.90;;;;;;5060986;28;20085;-81
2021/09/10 06:32:39;;;;;;;15.38;9.57;;;17.90;99.90;;;;;;5063120;28;20028;-81
2021/09/10 06:35:05;;;;;;;16.33;8.48;;;17.80;99.90;;;;;;5074848;28;20024;-81
2021/09/10 06:37:31;;;;;;;13.48;9.93;;;17.80;99.90;;;;;;5054030;28;20367;-81
2021/09/10 06:39:56;;;;;;;15.23;8.95;;;17.70;99.90;;;;;;5071140;28;20028;-81
2021/09/10 06:42:22;;;;;;;14.55;10.38;;;17.70;99.90;;;;;;5072371;28;20047;-80
2021/09/10 06:44:51;;;;;;;14.35;9.18;;;17.80;99.90;;;;;;5072033;28;20016;-80
2021/09/10 06:47:17;;;;;;;15.35;9.63;;;18.00;99.90;;;;;;5075243;28;20051;-81
2021/09/10 06:49:42;;;;;;;13.23;8.57;;;18.30;99.90;;;;;;5069285;28;20111;-81
2021/09/10 06:52:08;;;;;;;13.25;8.45;;;18.50;99.90;;;;;;5073425;28;20087;-81
2021/09/10 06:54:34;;;;;;;12.98;9.52;;;18.70;99.90;;;;;;5074858;28;20025;-81
2021/09/10 06:56:59;;;;;;;13.40;8.73;;;18.90;99.90;;;;;;5072454;28;20021;-81
2021/09/10 06:59:25;;;;;;;15.40;9.15;;;19.10;99.90;;;;;;5071032;28;20468;-81
2021/09/10 07:01:50;;;;;;;17.13;8.88;;;19.10;99.90;;;;;;5072657;28;20408;-81
2021/09/10 07:04:16;;;;;;;11.95;8.55;;;19.20;99.90;;;;;;5073582;28;20024;-81
2021/09/10 07:06:42;;;;;;;16.10;9.13;;;19.40;99.90;;;;;;5070661;28;20066;-81
2021/09/10 07:09:07;;;;;;;12.27;8.10;;;19.60;99.90;;;;;;5068433;28;20032;-81
2021/09/10 07:11:33;;;;;;;14.13;8.07;;;19.70;99.90;;;;;;5067861;28;20024;-81
2021/09/10 07:14:00;;;;;;;13.70;7.97;;;19.80;99.90;;;;;;5071741;28;20024;-81
2021/09/10 07:16:26;;;;;;;13.45;8.10;;;19.60;99.90;;;;;;5070583;28;20024;-81
2021/09/10 07:18:52;;;;;;;11.10;7.88;;;19.50;99.90;;;;;;5063452;28;20035;-81
2021/09/10 07:21:18;;;;;;;11.70;7.60;;;19.50;99.90;;;;;;5071403;28;20032;-81
2021/09/10 07:23:44;;;;;;;11.52;7.47;;;19.50;99.90;;;;;;5071162;28;20075;-81
2021/09/10 07:26:10;;;;;;;11.65;7.38;;;19.70;99.90;;;;;;5066164;28;20416;-84
2021/09/10 07:28:36;;;;;;;19.38;7.70;;;20.00;99.90;;;;;;5070271;28;20048;-84
2021/09/10 07:31:03;;;;;;;11.45;7.50;;;20.20;99.90;;;;;;5068535;28;20019;-85
2021/09/10 07:33:29;;;;;;;10.80;7.10;;;20.40;99.90;;;;;;5069855;28;20029;-85
2021/09/10 07:35:55;;;;;;;13.65;7.70;;;20.30;99.90;;;;;;5071770;28;20029;-85
2021/09/10 07:38:20;;;;;;;12.63;7.05;;;20.20;99.90;;;;;;5070107;28;20033;-85
2021/09/10 07:40:47;;;;;;;16.30;7.05;;;20.30;99.90;;;;;;5070578;28;20031;-84
2021/09/10 07:43:12;;;;;;;11.73;6.60;;;20.50;99.90;;;;;;5068952;28;20516;-84
2021/09/10 07:45:38;;;;;;;16.25;7.10;;;20.50;99.90;;;;;;5067598;28;20024;-84
2021/09/10 07:48:04;;;;;;;13.13;7.07;;;20.60;99.90;;;;;;5068954;28;20503;-83
2021/09/10 07:50:30;;;;;;;11.80;6.93;;;20.80;99.90;;;;;;5072981;28;20028;-84
2021/09/10 07:52:56;;;;;;;13.20;6.63;;;20.80;99.90;;;;;;5070873;28;20021;-83
2021/09/10 07:55:22;;;;;;;12.82;6.20;;;20.90;99.90;;;;;;5073439;28;20032;-83
2021/09/10 07:57:47;;;;;;;12.77;6.60;;;21.20;99.90;;;;;;5068876;28;20013;-83
2021/09/10 08:00:17;;;;;;;14.25;7.13;;;21.40;99.90;;;;;;5072645;28;20797;-83
2021/09/10 08:02:43;;;;;;;12.05;6.72;;;21.60;99.90;;;;;;5074385;28;20032;-83
2021/09/10 08:05:09;;;;;;;9.15;6.57;;;21.90;99.90;;;;;;5074082;28;20054;-83
2021/09/10 08:07:35;;;;;;;12.60;6.55;;;22.10;99.90;;;;;;5071897;28;20071;-84
2021/09/10 08:10:01;;;;;;;11.57;5.50;;;22.40;99.90;;;;;;5073840;28;20009;-84
2021/09/10 08:12:27;;;;;;;14.38;6.10;;;22.70;99.90;;;;;;5076191;28;20158;-84
2021/09/10 08:14:53;;;;;;;13.30;6.10;;;23.00;99.90;;;;;;5071799;28;20029;-84
2021/09/10 08:17:19;;;;;;;10.52;5.47;;;23.00;99.90;;;;;;5075160;28;20043;-84
2021/09/10 08:19:45;;;;;;;8.15;4.97;;;23.00;99.90;;;;;;5071522;28;20544;-84
2021/09/10 08:22:11;;;;;;;7.57;4.65;;;22.90;99.90;;;;;;5075464;28;20051;-83
2021/09/10 08:24:36;;;;;;;8.70;4.88;;;22.70;99.90;;;;;;5068275;28;20713;-84
2021/09/10 08:27:02;;;;;;;5.80;4.28;;;22.90;99.90;;;;;;5070323;28;20066;-84
2021/09/10 08:29:28;;;;;;;6.30;4.00;;;22.90;99.90;;;;;;5070123;28;20028;-84
2021/09/10 08:31:53;;;;;;;10.10;4.60;;;23.10;99.90;;;;;;5072435;28;20032;-83
2021/09/10 08:34:19;;;;;;;6.60;4.28;;;22.90;99.90;;;;;;5074857;28;20036;-83
2021/09/10 08:36:45;;;;;;;7.25;4.15;;;22.80;99.90;;;;;;5074933;28;20052;-83
2021/09/10 08:39:10;;;;;;;7.10;4.60;;;22.50;99.90;;;;;;5071018;28;20023;-84
2021/09/10 08:41:38;;;;;;;7.07;4.30;;;22.40;99.90;;;;;;5074000;28;20078;-83
2021/09/10 08:44:05;;;;;;;8.52;4.50;;;22.30;99.90;;;;;;5076031;28;20058;-84
2021/09/10 08:46:35;;;;;;;7.30;4.43;;;22.10;99.90;;;;;;5075888;28;20507;-84
2021/09/10 08:49:01;;;;;;;6.20;4.15;;;22.20;99.90;;;;;;5071602;28;20024;-83
2021/09/10 08:51:27;;;;;;;8.20;3.63;;;22.30;99.90;;;;;;5071087;28;20499;-83
2021/09/10 08:53:52;;;;;;;9.43;4.10;;;22.30;99.90;;;;;;5072256;28;20048;-83
2021/09/10 08:56:18;;;;;;;5.90;4.07;;;22.10;99.90;;;;;;5071519;28;20036;-84
2021/09/10 08:58:44;;;;;;;5.95;3.83;;;22.10;99.90;;;;;;5073041;28;20034;-83
2021/09/10 09:01:10;;;;;;;8.77;4.13;;;22.10;99.90;;;;;;5072040;28;20071;-84
2021/09/10 09:03:36;;;;;;;8.50;4.78;;;22.20;99.90;;;;;;5071602;28;20043;-83
2021/09/10 09:06:02;;;;;;;6.45;4.50;;;22.50;99.90;;;;;;5074513;28;20026;-83
2021/09/10 09:08:28;;;;;;;5.80;4.18;;;22.70;99.90;;;;;;5072899;28;20032;-84
2021/09/10 09:11:24;;;;;;;7.07;4.38;;;22.80;99.90;;;;;;5073379;28;20025;-82
2021/09/10 09:13:53;;;;;;;7.35;4.55;;;22.90;99.90;;;;;;5066617;28;20040;-84
2021/09/10 09:16:25;;;;;;;8.68;4.30;;;23.10;99.90;;;;;;5072674;28;20493;-83
2021/09/10 09:19:02;;;;;;;5.88;4.60;;;22.90;99.90;;;;;;5071145;28;20047;-83
2021/09/10 09:21:31;;;;;;;6.63;4.45;;;22.90;99.90;;;;;;5072735;28;20123;-84
2021/09/10 09:24:19;;;;;;;7.78;4.20;;;23.10;99.90;;;;;;5073381;28;20032;-84
2021/09/10 09:26:51;;;;;;;7.68;5.22;;;23.40;99.90;;;;;;5071667;28;20102;-83
2021/09/10 09:29:21;;;;;;;8.63;4.60;;;23.50;99.90;;;;;;5065449;28;20074;-84
2021/09/10 09:32:01;;;;;;;6.68;4.10;;;23.50;99.90;;;;;;5074757;28;20564;-84
2021/09/10 09:34:46;;;;;;;6.20;4.00;;;23.70;99.90;;;;;;5070571;28;20021;-83
2021/09/10 09:37:24;;;;;;;5.47;3.72;;;23.70;99.70;;;;;;5072597;28;20035;-84
2021/09/10 09:39:52;;;;;;;6.03;4.10;;;23.60;98.90;;;;;;5070633;28;20583;-85
2021/09/10 09:42:30;;;;;;;8.52;4.55;;;23.30;99.20;;;;;;5074891;28;20031;-83
2021/09/10 09:45:15;;;;;;;6.55;3.83;;;23.10;99.90;;;;;;5070058;28;20038;-83
2021/09/10 09:47:43;;;;;;;5.90;4.18;;;22.90;99.40;;;;;;5073413;28;20400;-85
2021/09/10 09:50:14;;;;;;;7.07;4.05;;;22.90;99.90;;;;;;5068208;28;20398;-83
2021/09/10 09:52:40;;;;;;;6.47;4.47;;;23.00;99.90;;;;;;5073933;28;20017;-84
2021/09/10 09:55:08;;;;;;;7.75;4.63;;;23.20;99.80;;;;;;5065222;28;20074;-83
2021/09/10 09:57:34;;;;;;;8.30;5.20;;;23.30;99.80;;;;;;5072407;28;20097;-83
2021/09/10 10:00:05;;;;;;;6.28;4.53;;;23.40;99.60;;;;;;5061852;28;20032;-84
2021/09/10 10:02:31;;;;;;;7.27;4.80;;;23.60;99.90;;;;;;5052292;28;20388;-84
2021/09/10 10:04:57;;;;;;;8.00;4.25;;;23.60;99.90;;;;;;5049775;28;20275;-83
2021/09/10 10:07:28;;;;;;;6.88;4.50;;;23.70;99.40;;;;;;5051172;28;20029;-83
2021/09/10 10:09:56;;;;;;;6.22;4.13;;;24.00;99.10;;;;;;5059163;28;20515;-83
2021/09/10 10:12:24;;;;;;;6.55;4.90;;;24.20;99.10;;;;;;5069577;28;20017;-83
2021/09/10 10:14:50;;;;;;;7.43;4.60;;;24.60;98.90;;;;;;5064874;28;20028;-83
2021/09/10 10:17:31;;;;;;;5.60;4.10;;;24.70;98.20;;;;;;5063159;28;20031;-83
2021/09/10 10:19:57;;;;;;;7.88;4.60;;;24.50;97.80;;;;;;5052737;28;20052;-83
2021/09/10 10:22:37;;;;;;;8.43;4.50;;;24.30;97.90;;;;;;5053215;28;20091;-84
2021/09/10 10:25:05;;;;;;;8.95;5.60;;;24.20;98.10;;;;;;5055637;28;20024;-84
2021/09/10 10:27:38;;;;;;;6.80;4.35;;;24.10;98.60;;;;;;5073559;28;20028;-84
2021/09/10 10:30:05;;;;;;;7.63;4.63;;;24.30;99.00;;;;;;5071572;28;20484;-83
2021/09/10 10:32:42;;;;;;;5.82;4.25;;;24.20;99.20;;;;;;5072679;28;20369;-83
2021/09/10 10:35:50;;;;;;;6.65;4.63;;;24.20;99.00;;;;;;5068171;28;20124;-83
2021/09/10 10:38:15;;;;;;;8.45;4.78;;;24.00;99.60;;;;;;5049018;28;20043;-83
2021/09/10 10:40:52;;;;;;;7.78;5.13;;;24.20;99.60;;;;;;5070489;28;20025;-84
2021/09/10 10:43:17;;;;;;;6.97;5.10;;;24.20;99.50;;;;;;5070632;28;20021;-84
2021/09/10 10:45:46;;;;;;;6.65;4.30;;;24.30;99.10;;;;;;5070769;28;20028;-83
2021/09/10 10:48:32;;;;;;;6.45;4.57;;;24.50;99.00;;;;;;5069346;28;20078;-83
2021/09/10 10:51:23;;;;;;;7.65;3.75;;;24.70;98.20;;;;;;5070710;28;20009;-83
2021/09/10 10:53:52;;;;;;;5.40;4.00;;;25.10;96.60;;;;;;5067191;28;20027;-83
2021/09/10 10:56:33;;;;;;;7.68;4.15;;;25.50;96.60;;;;;;5071016;28;20032;-83
2021/09/10 10:59:14;;;;;;;8.05;4.10;;;25.30;95.90;;;;;;5069151;28;20370;-84
2021/09/10 11:02:14;;;;;;;6.85;3.88;;;25.10;96.10;;;;;;5071328;28;20044;-83
2021/09/10 11:04:44;;;;;;;7.13;3.97;;;24.80;95.80;;;;;;5073247;28;20074;-84
2021/09/10 11:07:10;;;;;;;7.45;4.15;;;24.90;96.30;;;;;;5071776;28;20077;-84
2021/09/10 11:09:36;;;;;;;6.20;3.83;;;25.00;96.30;;;;;;5070527;28;20036;-83
2021/09/10 11:12:02;;;;;;;6.50;4.05;;;25.20;95.90;;;;;;5071595;28;20020;-84
2021/09/10 11:14:31;;;;;;;7.65;3.78;;;25.20;95.30;;;;;;5069641;28;20083;-84
2021/09/10 11:17:14;;;;;;;5.47;4.03;;;25.20;95.70;;;;;;5071868;28;20025;-84
2021/09/10 11:19:46;;;;;;;5.38;3.88;;;24.90;96.30;;;;;;5070433;28;20086;-83
2021/09/10 11:22:12;;;;;;;6.90;3.70;;;24.70;96.20;;;;;;5066727;28;20499;-84
2021/09/10 11:24:38;;;;;;;6.32;4.10;;;24.80;97.20;;;;;;5072506;28;20182;-84
2021/09/10 11:27:25;;;;;;;6.03;3.90;;;24.70;96.80;;;;;;5062627;28;20606;-84
2021/09/10 11:29:51;;;;;;;6.40;4.20;;;24.80;96.80;;;;;;5069295;28;20055;-83
2021/09/10 11:32:25;;;;;;;7.32;4.40;;;25.00;95.70;;;;;;5074811;28;20016;-84
2021/09/10 11:34:51;;;;;;;6.40;4.13;;;25.30;95.90;;;;;;5070393;28;20048;-84
2021/09/10 11:37:29;;;;;;;5.75;3.75;;;25.50;95.50;;;;;;5067903;28;20068;-84
2021/09/10 11:39:56;;;;;;;7.85;3.95;;;25.70;96.20;;;;;;5071201;28;20495;-84
2021/09/10 11:42:40;;;;;;;5.18;3.92;;;25.80;95.30;;;;;;5069802;28;20036;-84
2021/09/10 11:45:11;;;;;;;5.70;3.90;;;25.90;95.10;;;;;;5069924;28;20524;-81
2021/09/10 11:47:37;;;;;;;7.60;3.88;;;25.70;95.60;;;;;;5065242;28;20044;-84
2021/09/10 11:50:08;;;;;;;8.98;3.90;;;26.20;95.40;;;;;;5070474;28;20033;-84
2021/09/10 11:52:35;;;;;;;5.50;3.45;;;26.00;95.20;;;;;;5073625;28;20019;-83
2021/09/10 11:55:10;;;;;;;5.80;3.70;;;26.00;95.00;;;;;;5072639;28;20041;-83
2021/09/10 11:57:38;;;;;;;7.25;4.03;;;26.30;94.70;;;;;;5067655;28;20032;-83
2021/09/10 12:00:09;;;;;;;5.18;3.63;;;26.40;94.10;;;;;;5069867;28;20052;-84
2021/09/10 12:02:35;;;;;;;6.05;3.88;;;26.40;94.40;;;;;;5070730;28;20029;-82
2021/09/10 12:05:04;;;;;;;7.40;4.15;;;26.50;93.90;;;;;;5071873;28;20031;-85
2021/09/10 12:07:31;;;;;;;6.38;4.00;;;27.00;94.10;;;;;;5074404;28;20021;-84
2021/09/10 12:09:59;;;;;;;5.85;4.05;;;27.40;93.20;;;;;;5071619;28;20507;-84
2021/09/10 12:12:27;;;;;;;5.10;3.70;;;27.50;93.20;;;;;;5050188;23;20042;-89
2021/09/10 12:14:52;;;;;;;7.20;4.32;;;27.00;93.70;;;;;;4999502;28;20095;-89
2021/09/10 12:17:24;;;;;;;6.93;4.20;;;26.50;93.50;;;;;;4993282;28;20095;-89
2021/09/10 12:19:59;;;;;;;5.53;3.75;;;26.20;94.20;;;;;;5005089;28;20026;-89
2021/09/10 12:22:31;;;;;;;6.50;4.03;;;26.20;94.70;;;;;;4994328;28;20023;-88
2021/09/10 12:25:19;;;;;;;8.38;4.07;;;26.60;93.80;;;;;;4998216;28;20037;-88
2021/09/10 12:27:45;;;;;;;5.93;4.13;;;27.00;93.90;;;;;;4981804;28;20079;-88
2021/09/10 12:30:14;;;;;;;6.80;4.00;;;27.20;93.60;;;;;;4985107;28;20031;-88
2021/09/10 12:32:40;;;;;;;6.05;3.95;;;26.50;93.30;;;;;;4984867;28;20071;-89
2021/09/10 12:35:06;;;;;;;7.95;4.25;;;26.80;94.00;;;;;;4985310;28;20061;-89
2021/09/10 12:37:33;;;;;;;6.68;3.92;;;27.30;93.30;;;;;;4989405;28;20049;-89
2021/09/10 12:39:58;;;;;;;7.53;3.95;;;27.60;92.10;;;;;;4989805;28;20110;-89
2021/09/10 12:42:24;;;;;;;6.50;4.43;;;27.70;92.90;;;;;;4989607;28;20069;-88
2021/09/10 12:44:50;;;;;;;6.45;3.65;;;27.40;93.40;;;;;;4984929;28;20506;-90
2021/09/10 12:47:16;;;;;;;7.10;4.18;;;26.60;93.60;;;;;;4986317;28;20023;-89